CSUN New Campus Station -PST Time - Most Recent Data on bottom of page




           Date/Time      Avg      Avg      Max     Wind      Avg      Max      Min      Avg      Avg    Total      Avg     Batt
                         Wind     Wind     Wind      Dir     Temp     Temp     Temp       RH      Bar     Rain    Solar     Volt
                      Spd MPH      Dir  Spd MPH   at Max    Deg_F    Deg_F    Deg_F        % Press_mb   Inches     W/m2      Min
--------------------------------------------------------------------------------------------------------------------------------
    06/22/2016 00:00      0.3      162      1.9      156     72.3     73.0     71.3       64     1012     0.00        0     13.3
    06/22/2016 00:15      0.0        0      0.0      139     71.0     71.4     70.8       65     1012     0.00        0     13.3
    06/22/2016 00:30      0.0        0      0.0      161     71.2     71.4     70.9       65     1012     0.00        0     13.3
    06/22/2016 00:45      0.0        0      0.0      306     71.2     71.4     70.9       65     1012     0.00        0     13.3
    06/22/2016 01:00      0.0        0      0.0      328     70.6     71.2     70.1       67     1012     0.00        0     13.3
    06/22/2016 01:15      0.0        0      0.0      328     70.0     70.2     69.7       68     1012     0.00        0     13.3
    06/22/2016 01:30      0.0        0      0.0      327     70.0     70.2     69.7       68     1012     0.00        0     13.3
    06/22/2016 01:45      0.0        0      0.0      328     69.6     69.9     69.3       68     1012     0.00        0     13.3
    06/22/2016 02:00      0.0        0      0.0       52     69.5     69.7     69.3       67     1012     0.00        0     13.3
    06/22/2016 02:15      0.0       61      1.1       54     69.7     69.9     69.4       65     1012     0.00        0     13.3
    06/22/2016 02:30      0.4       48      1.6       65     69.8     70.0     69.5       66     1012     0.00        0     13.3
    06/22/2016 02:45      0.3       64      2.2       71     69.3     69.9     68.6       67     1012     0.00        0     13.3
    06/22/2016 03:00      0.2       49      1.7       68     68.6     68.9     68.3       67     1012     0.00        0     13.3
    06/22/2016 03:15      1.3       42      2.5       30     69.3     69.6     68.8       65     1012     0.00        0     13.3
    06/22/2016 03:30      1.2       35      2.5       34     69.4     69.7     69.1       64     1012     0.00        0     13.3
    06/22/2016 03:45      0.3       43      1.6       46     69.1     69.5     68.6       64     1012     0.00        0     13.3
    06/22/2016 04:00      1.1       35      2.4       30     68.7     68.9     68.4       63     1012     0.00        0     13.3
    06/22/2016 04:15      0.8       40      2.3       30     68.8     69.1     68.6       63     1012     0.00        0     13.3
    06/22/2016 04:30      1.6       34      3.0       32     68.7     68.9     68.5       64     1012     0.00        0     13.3
    06/22/2016 04:45      1.0       32      3.5       35     68.5     68.9     68.1       66     1012     0.00        1     13.3
    06/22/2016 05:00      0.2       26      1.5        9     67.8     68.3     67.3       67     1012     0.00        7     13.3
    06/22/2016 05:15      0.5       24      2.1       31     67.4     67.8     67.2       68     1012     0.00       16     13.3
    06/22/2016 05:30      0.9       29      2.2       17     67.8     68.2     67.5       66     1012     0.00       26     13.3
    06/22/2016 05:45      0.6       54      2.1       38     68.7     69.2     68.0       64     1013     0.00       35     13.3
    06/22/2016 06:00      0.9       81      2.5       74     70.0     71.1     69.0       60     1013     0.00      125     13.3
    06/22/2016 06:15      1.6       73      2.7       81     71.6     72.2     70.9       57     1013     0.00      179     13.3
    06/22/2016 06:30      2.0       71      4.9       94     72.7     73.3     72.0       54     1013     0.00      225     13.3
    06/22/2016 06:45      2.7       78      4.9       84     73.1     73.5     72.7       53     1013     0.00      276     13.2
    06/22/2016 07:00      1.5      103      3.8       50     74.0     75.0     73.2       50     1013     0.00      326     13.2
    06/22/2016 07:15      1.7      159      5.1      152     74.9     75.3     74.4       50     1013     0.00      374     13.2
    06/22/2016 07:30      1.9      114      4.5       91     75.7     76.6     74.4       44     1013     0.00      426     13.2
    06/22/2016 07:45      2.5      129      6.2      144     76.8     77.2     76.2       43     1013     0.00      460     13.2
    06/22/2016 08:00      2.1      117      6.8      138     77.8     78.5     77.2       36     1013     0.00      522     13.2
    06/22/2016 08:15      3.0      119      6.0      143     79.1     79.8     78.3       35     1013     0.00      568     13.2
    06/22/2016 08:30      2.3      100      5.3       51     79.6     80.2     79.0       35     1013     0.00      610     13.1
    06/22/2016 08:45      3.1      144      6.7      142     80.4     80.7     79.9       30     1013     0.00      655     13.1
    06/22/2016 09:00      2.0      117      4.7      164     81.1     82.1     80.2       31     1013     0.00      698     13.1
    06/22/2016 09:15      1.7       89      4.7      102     81.5     82.0     81.0       28     1013     0.00      737     13.1
    06/22/2016 09:30      2.4      152      6.3      139     81.9     82.6     81.2       28     1013     0.00      775     13.1
    06/22/2016 09:45      2.1       88      6.2      145     83.0     84.1     82.2       29     1013     0.00      809     13.1
    06/22/2016 10:00      2.3      127      5.0      113     84.1     84.6     83.6       27     1013     0.00      841     13.1
    06/22/2016 10:15      1.4      137      6.1      130     85.0     86.1     83.8       26     1013     0.00      869     13.0
    06/22/2016 10:30      1.8       76      5.2       50     86.0     86.6     85.4       27     1013     0.00      891     13.0
    06/22/2016 10:45      2.9      123     10.7      151     86.9     87.5     85.6       24     1013     0.00      912     13.0
    06/22/2016 11:00      3.5      140      6.7      190     87.9     88.7     87.2       26     1013     0.00      925     13.0
    06/22/2016 11:15      3.8      112      8.8      160     88.2     89.1     87.5       24     1013     0.00      936     13.0
    06/22/2016 11:30      2.9      166      7.8      148     88.8     89.4     88.2       24     1012     0.00      944     13.0
    06/22/2016 11:45      2.9      123      7.5      117     89.8     90.4     88.9       22     1012     0.00      948     13.0
    06/22/2016 12:00      4.7       88     10.7       86     90.0     90.8     89.3       23     1012     0.00      949     13.0
    06/22/2016 12:15      5.2      117     10.4      149     90.4     91.1     89.7       20     1012     0.00      950     13.0
    06/22/2016 12:30      4.9      107     10.7       90     90.6     91.7     90.0       18     1012     0.00      948     13.0
    06/22/2016 12:45      5.2      125     12.4      142     91.3     92.0     90.7       17     1012     0.00      942     13.0
    06/22/2016 13:00      4.9      123     14.6      148     90.6     91.7     89.7       17     1012     0.00      933     13.0
    06/22/2016 13:15      4.2      128     12.7       83     91.1     91.9     90.3       17     1012     0.00      921     13.0
    06/22/2016 13:30      5.3      144     11.3      152     91.5     92.4     90.1       17     1012     0.00      902     13.0
    06/22/2016 13:45      4.4      112      9.1      155     91.8     92.3     91.4       17     1012     0.00      881     13.0
    06/22/2016 14:00      4.2      102     11.1       98     92.0     92.5     91.5       17     1012     0.00      856     13.0
    06/22/2016 14:15      5.0      118     10.8      127     92.0     92.7     91.1       16     1011     0.00      826     13.0
    06/22/2016 14:30      5.6       96     11.4      147     91.9     92.4     91.6       16     1011     0.00      769     13.0
    06/22/2016 14:45      5.2      125     10.2      134     92.3     92.8     91.8       17     1011     0.00      760     13.0
    06/22/2016 15:00      5.7      133     12.3      148     92.3     92.8     91.2       17     1011     0.00      723     13.0
    06/22/2016 15:15      4.6      110     10.5      126     91.2     91.4     90.8       17     1011     0.00      683     13.0
    06/22/2016 15:30      5.1      118     11.2      137     90.7     91.4     90.0       17     1011     0.00      641     13.0
    06/22/2016 15:45      6.3      127     13.8      148     89.8     90.3     89.4       18     1011     0.00      599     13.0
    06/22/2016 16:00      5.2      107     12.6      144     88.8     89.6     88.5       17     1011     0.00      555     13.0
    06/22/2016 16:15      5.6      105     15.3      100     88.6     89.4     87.5       21     1011     0.00      509     13.0
    06/22/2016 16:30      4.8      104     10.2       86     88.3     88.9     87.8       21     1011     0.00      461     13.0
    06/22/2016 16:45      4.9      102     11.1      109     87.7     88.2     87.1       22     1011     0.00      412     13.0
    06/22/2016 17:00      5.1      104     13.4       94     86.7     87.2     86.1       23     1011     0.00      363     13.0
    06/22/2016 17:15      4.8      115     12.9       88     85.9     86.4     85.4       23     1011     0.00      313     13.0
    06/22/2016 17:30      4.5      113      9.7       96     85.0     85.5     84.5       26     1011     0.00      256     13.0
    06/22/2016 17:45      4.0      113     12.1       96     83.8     84.6     83.2       27     1011     0.00       50     13.1
    06/22/2016 18:00      4.4      102      9.5       88     82.6     83.3     82.1       30     1011     0.00       38     13.1
    06/22/2016 18:15      4.2       89      9.1       96     81.4     82.1     80.8       31     1011     0.00       32     13.1
    06/22/2016 18:30      4.7       73     10.5       60     80.5     81.1     79.8       32     1011     0.00       26     13.1
    06/22/2016 18:45      5.5       85     10.3       76     79.4     79.9     78.9       34     1011     0.00       23     13.1
    06/22/2016 19:00      4.0       80      7.6       91     78.5     79.0     77.9       39     1012     0.00       14     13.1
    06/22/2016 19:15      4.7       79      7.5      105     77.3     77.9     76.7       39     1012     0.00        6     13.2
    06/22/2016 19:30      3.9       75      7.6       62     76.4     77.0     75.8       42     1012     0.00        2     13.2
    06/22/2016 19:45      4.1       75      8.6       75     75.6     76.0     75.0       43     1012     0.00        0     13.2
    06/22/2016 20:00      3.6       82      6.8       94     75.0     75.4     74.7       45     1012     0.00        0     13.2
    06/22/2016 20:15      3.1       71      6.7       81     74.5     75.0     74.1       48     1012     0.00        0     13.2
    06/22/2016 20:30      2.8       83      7.1       75     74.0     74.3     73.6       49     1012     0.00        0     13.2
    06/22/2016 20:45      4.0       83      7.2       76     73.3     73.8     72.8       51     1012     0.00        0     13.2
    06/22/2016 21:00      2.4       94      6.2       92     72.7     73.1     72.3       53     1012     0.00        0     13.2
    06/22/2016 21:15      2.4       84      4.7       81     72.2     72.5     72.0       56     1012     0.00        0     13.3
    06/22/2016 21:30      2.0       91      4.2       92     71.9     72.2     71.5       57     1013     0.00        0     13.3
    06/22/2016 21:45      2.1       89      5.9       69     71.4     71.7     71.0       59     1013     0.00        0     13.3
    06/22/2016 22:00      2.8       79      6.1       82     70.7     71.3     70.3       60     1013     0.00        0     13.3
    06/22/2016 22:15      2.9       71      5.8       76     70.2     70.6     69.6       62     1013     0.00        0     13.3
    06/22/2016 22:30      2.3       92      5.1       67     69.6     69.9     69.2       65     1013     0.00        0     13.3
    06/22/2016 22:45      2.1       85      5.0       70     69.0     69.4     68.6       67     1013     0.00        0     13.3
    06/22/2016 23:00      2.7       87      5.2       83     68.4     68.8     68.1       68     1013     0.00        0     13.3
    06/22/2016 23:15      0.8       94      3.7       85     67.9     68.2     67.6       69     1013     0.00        0     13.3
    06/22/2016 23:30      1.8       84      3.6       71     67.7     67.9     67.5       69     1013     0.00        0     13.3
    06/22/2016 23:45      0.9      105      3.1       66     67.6     67.8     67.3       70     1013     0.00        0     13.3
    06/23/2016 00:00      1.3       74      3.9       59     67.3     67.6     67.0       71     1013     0.00        0     13.3
    06/23/2016 00:15      1.9       75      3.7       86     67.0     67.3     66.7       72     1013     0.00        0     13.3
    06/23/2016 00:30      2.2       78      4.0       77     66.7     67.0     66.4       73     1013     0.00        0     13.3
    06/23/2016 00:45      2.0       69      5.2       71     66.4     66.7     66.1       74     1013     0.00        0     13.3
    06/23/2016 01:00      2.3       94      4.4       53     66.0     66.3     65.6       75     1013     0.00        0     13.3
    06/23/2016 01:15      2.6       94      5.2       97     65.4     65.8     64.9       77     1013     0.00        0     13.3
    06/23/2016 01:30      2.4       77      4.3       74     64.7     65.1     64.4       78     1013     0.00        0     13.3
    06/23/2016 01:45      1.8       75      4.1       81     64.4     64.7     64.2       78     1013     0.00        0     13.3
    06/23/2016 02:00      1.3       73      3.6       63     64.2     64.5     64.0       79     1013     0.00        0     13.3
    06/23/2016 02:15      1.2       56      2.9       89     64.0     64.2     63.7       80     1013     0.00        0     13.3
    06/23/2016 02:30      1.2       93      2.9      111     63.7     64.0     63.4       80     1013     0.00        0     13.3
    06/23/2016 02:45      1.0      108      3.2       90     63.3     63.6     63.0       81     1013     0.00        0     13.3
    06/23/2016 03:00      1.1      116      3.1       81     62.9     63.2     62.6       82     1013     0.00        0     13.3
    06/23/2016 03:15      0.7       98      2.4       67     62.7     63.0     62.5       82     1013     0.00        0     13.4
    06/23/2016 03:30      0.5      149      1.9      147     62.3     62.8     61.9       83     1013     0.00        0     13.4
    06/23/2016 03:45      0.7      152      2.5      153     61.8     62.1     61.6       84     1013     0.00        0     13.4
    06/23/2016 04:00      0.9      141      2.4      165     61.7     61.9     61.5       85     1013     0.00        0     13.4
    06/23/2016 04:15      0.9      145      2.8      137     61.6     61.9     61.4       85     1013     0.00        0     13.4
    06/23/2016 04:30      1.3      143      2.8      142     61.5     61.7     61.3       85     1013     0.00        0     13.4
    06/23/2016 04:45      0.2      148      1.2      138     61.3     61.6     61.0       86     1013     0.00        2     13.4
    06/23/2016 05:00      0.8      146      2.2      139     61.0     61.3     60.8       86     1013     0.00        6     13.4
    06/23/2016 05:15      0.9      151      2.1      183     61.2     61.7     61.0       87     1013     0.00       13     13.4
    06/23/2016 05:30      0.9      111      3.3       94     62.0     62.5     61.4       86     1013     0.00       22     13.4
    06/23/2016 05:45      1.3      111      4.7       68     62.5     62.8     62.2       85     1013     0.00       36     13.4
    06/23/2016 06:00      2.2       55      5.3       57     62.7     63.0     62.4       84     1013     0.00       55     13.3
    06/23/2016 06:15      0.7       22      4.8       69     62.9     63.1     62.5       84     1013     0.00       74     13.3
    06/23/2016 06:30      1.0       33      3.5       23     63.5     64.1     63.0       82     1014     0.00      111     13.3
    06/23/2016 06:45      1.3       98      3.9      135     64.3     64.6     63.9       80     1014     0.00      130     13.3
    06/23/2016 07:00      1.6      137      4.5       98     64.5     64.7     64.2       79     1014     0.00      143     13.3
    06/23/2016 07:15      2.0      125      4.7       82     64.7     65.0     64.4       78     1014     0.00      194     13.3
    06/23/2016 07:30      1.4       87      3.5       71     65.0     65.5     64.6       77     1014     0.00      237     13.3
    06/23/2016 07:45      1.6      156      4.1      115     66.5     67.7     65.5       73     1014     0.00      425     13.3
    06/23/2016 08:00      1.8      172      4.6      151     67.5     68.1     66.8       72     1014     0.00      514     13.2
    06/23/2016 08:15      1.4      128      4.9      174     69.2     70.5     67.7       66     1014     0.00      567     13.2
    06/23/2016 08:30      1.0      125      4.0      195     70.5     71.5     70.0       63     1014     0.00      618     13.2
    06/23/2016 08:45      1.6      112      4.4       87     71.8     72.6     71.2       62     1014     0.00      663     13.2
    06/23/2016 09:00      1.3      144      4.4      133     72.3     73.3     71.4       58     1014     0.00      708     13.2
    06/23/2016 09:15      1.1      136      6.4      149     74.0     75.1     72.7       55     1014     0.00      738     13.2
    06/23/2016 09:30      2.6      161      7.0      159     74.9     75.5     74.2       52     1014     0.00      777     13.1
    06/23/2016 09:45      1.9      142      6.7      151     76.3     77.5     74.6       48     1014     0.00      815     13.1
    06/23/2016 10:00      2.1      199      7.1       67     76.9     78.2     76.0       47     1014     0.00      840     13.1
    06/23/2016 10:15      3.3      164      7.5      148     78.8     79.4     77.7       41     1014     0.00      874     13.1
    06/23/2016 10:30      2.2      122      5.8      176     80.2     81.4     79.0       40     1014     0.00      893     13.1
    06/23/2016 10:45      2.4      149      6.8      171     81.3     81.8     81.0       39     1013     0.00      915     13.1
    06/23/2016 11:00      3.0      166      7.4      169     82.1     82.4     81.6       40     1013     0.00      931     13.1
    06/23/2016 11:15      3.3       98      8.5      140     83.1     83.7     82.2       40     1013     0.00      941     13.1
    06/23/2016 11:30      2.8      107      8.9      149     83.7     84.5     82.9       36     1013     0.00      947     13.0
    06/23/2016 11:45      3.1      133      8.6      108     85.1     85.7     84.3       35     1013     0.00      952     13.1
    06/23/2016 12:00      3.5      127      7.7      131     84.6     85.3     84.1       36     1013     0.00      955     13.0
    06/23/2016 12:15      3.5      107      9.0       85     85.5     86.3     84.6       35     1013     0.00      955     13.0
    06/23/2016 12:30      3.7      144      8.8      146     85.9     86.6     85.1       35     1013     0.00      948     13.0
    06/23/2016 12:45      3.2      104     11.0       74     86.0     86.7     85.3       35     1012     0.00      941     13.0
    06/23/2016 13:00      4.4      115      8.7       87     86.6     87.0     85.9       35     1012     0.00      935     13.0
    06/23/2016 13:15      4.0      130      9.1      159     87.4     88.4     86.3       32     1012     0.00      919     13.0
    06/23/2016 13:30      4.6      112     10.0       76     87.5     88.3     86.9       33     1012     0.00      901     13.0
    06/23/2016 13:45      4.4      115      9.2      151     87.6     88.6     87.0       34     1012     0.00      880     13.0
    06/23/2016 14:00      4.9      120     10.9      133     87.6     88.4     87.0       34     1012     0.00      853     13.0
    06/23/2016 14:15      4.1      121      7.8      118     87.8     88.3     87.3       34     1012     0.00      822     13.0
    06/23/2016 14:30      4.3      126      9.4      146     87.8     88.3     87.3       34     1012     0.00      763     13.0
    06/23/2016 14:45      4.4      123      9.3      136     87.6     88.4     87.2       32     1012     0.00      755     13.0
    06/23/2016 15:00      4.3      117     10.2      156     87.6     88.3     87.0       34     1012     0.00      718     13.0
    06/23/2016 15:15      4.0      112      9.8       92     87.0     87.5     86.5       34     1012     0.00      680     13.0
    06/23/2016 15:30      4.7      122     10.7      136     86.4     87.2     85.8       35     1011     0.00      637     13.0
    06/23/2016 15:45      4.4      122      8.9      114     86.6     87.3     85.3       35     1011     0.00      592     13.0
    06/23/2016 16:00      5.1      117      9.9       95     85.1     86.3     84.4       35     1011     0.00      548     13.0
    06/23/2016 16:15      5.2       91     12.4       79     84.6     85.3     84.0       35     1011     0.00      502     13.0
    06/23/2016 16:30      4.5      108      9.5       94     84.3     84.7     83.7       36     1011     0.00      452     13.0
    06/23/2016 16:45      4.1      129      7.8      130     84.7     85.5     84.0       35     1011     0.00      405     13.0
    06/23/2016 17:00      3.8      119      9.0       85     84.5     85.0     83.8       36     1011     0.00      359     13.0
    06/23/2016 17:15      3.4      109      7.3       83     83.8     84.6     82.8       37     1011     0.00      308     13.0
    06/23/2016 17:30      4.3       98      8.7       80     82.9     83.4     82.3       38     1011     0.00      251     13.0
    06/23/2016 17:45      2.9      110      8.0       90     82.1     82.5     81.8       39     1011     0.00       53     13.0
    06/23/2016 18:00      2.8      113      7.3      122     81.7     82.0     81.1       40     1011     0.00       39     13.1
    06/23/2016 18:15      3.1       97      6.8       73     80.8     81.3     80.3       41     1011     0.00       33     13.1
    06/23/2016 18:30      3.1       99      7.6       88     80.2     80.6     79.9       40     1011     0.00       27     13.1
    06/23/2016 18:45      3.3       81      6.4       57     79.8     80.3     79.3       41     1011     0.00       22     13.1
    06/23/2016 19:00      2.9       82      6.4       70     79.0     79.6     78.5       43     1011     0.00       13     13.2
    06/23/2016 19:15      2.9       83      6.9      108     78.3     78.7     77.8       45     1011     0.00        5     13.2
    06/23/2016 19:30      2.8       79      6.4       77     77.6     77.9     77.2       47     1012     0.00        1     13.2
    06/23/2016 19:45      2.4       84      5.7       76     77.0     77.4     76.7       47     1012     0.00        0     13.2
    06/23/2016 20:00      3.1       88      5.0       54     76.5     76.8     76.0       49     1012     0.00        0     13.2
    06/23/2016 20:15      3.4       75      6.1       55     75.7     76.2     75.2       51     1012     0.00        0     13.2
    06/23/2016 20:30      2.5       74      5.5       47     75.0     75.4     74.5       53     1012     0.00        0     13.2
    06/23/2016 20:45      2.8       74      5.2       90     74.4     74.8     73.9       54     1012     0.00        0     13.2
    06/23/2016 21:00      2.6       75      5.9       67     73.7     74.1     73.2       56     1012     0.00        0     13.2
    06/23/2016 21:15      2.6       78      5.0       83     73.0     73.4     72.5       57     1012     0.00        0     13.2
    06/23/2016 21:30      3.3       73      6.8       85     72.3     72.8     71.9       58     1012     0.00        0     13.2
    06/23/2016 21:45      3.1       76      5.7       86     71.7     72.1     71.4       58     1013     0.00        0     13.2
    06/23/2016 22:00      2.9       63      5.8       83     71.2     71.6     70.8       59     1013     0.00        0     13.3
    06/23/2016 22:15      2.8       77      6.5       87     70.6     71.0     70.2       62     1013     0.00        0     13.3
    06/23/2016 22:30      2.7       85      6.0       83     70.3     70.5     69.9       63     1013     0.00        0     13.3
    06/23/2016 22:45      1.9       73      4.2       66     69.8     70.2     69.4       65     1013     0.00        0     13.3
    06/23/2016 23:00      2.0       80      3.7       67     69.5     69.8     69.2       66     1013     0.00        0     13.3
    06/23/2016 23:15      1.8       81      4.8       90     69.2     69.5     68.9       67     1013     0.00        0     13.3
    06/23/2016 23:30      0.8       90      3.4      104     68.8     69.2     68.6       68     1013     0.00        0     13.3
    06/23/2016 23:45      1.7       84      3.4       47     68.5     68.7     68.3       68     1013     0.00        0     13.3
    06/24/2016 00:00      0.6      117      3.1       92     68.1     68.6     67.6       70     1013     0.00        0     13.3
    06/24/2016 00:15      0.6      140      2.5      142     67.3     67.8     66.8       72     1013     0.00        0     13.3
    06/24/2016 00:30      0.7      144      2.8      151     67.0     67.2     66.8       72     1013     0.00        0     13.3
    06/24/2016 00:45      0.6      114      2.3       60     66.9     67.1     66.6       72     1013     0.00        0     13.3
    06/24/2016 01:00      1.7       72      3.6       57     67.0     67.2     66.8       72     1013     0.00        0     13.3
    06/24/2016 01:15      1.5       72      3.9       84     66.8     67.1     66.5       73     1013     0.00        0     13.3
    06/24/2016 01:30      1.5       76      3.4       78     66.4     66.7     66.2       74     1013     0.00        0     13.3
    06/24/2016 01:45      0.8       97      3.4       70     66.1     66.4     65.6       74     1012     0.00        0     13.3
    06/24/2016 02:00      0.6      155      1.5      141     65.2     65.8     64.8       76     1012     0.00        0     13.3
    06/24/2016 02:15      0.3      128      2.4       90     64.7     64.9     64.5       78     1012     0.00        0     13.3
    06/24/2016 02:30      0.3      133      2.0      139     64.6     64.8     64.4       78     1012     0.00        0     13.3
    06/24/2016 02:45      0.8       88      2.4       96     64.5     64.7     64.2       78     1012     0.00        0     13.3
    06/24/2016 03:00      0.7      110      2.1      100     64.5     64.8     64.1       78     1012     0.00        0     13.3
    06/24/2016 03:15      0.5      139      2.1      151     63.8     64.3     63.5       80     1012     0.00        0     13.4
    06/24/2016 03:30      0.7      135      2.5      144     63.5     63.7     63.3       81     1012     0.00        0     13.4
    06/24/2016 03:45      0.2      104      2.4       80     63.5     63.7     63.1       81     1012     0.00        0     13.4
    06/24/2016 04:00      0.8       74      2.7       85     63.2     63.5     63.0       82     1012     0.00        0     13.4
    06/24/2016 04:15      0.9       88      3.0       89     63.2     63.5     63.0       82     1012     0.00        0     13.4
    06/24/2016 04:30      0.5       71      2.0       68     62.9     63.2     62.7       83     1012     0.00        0     13.4
    06/24/2016 04:45      0.8       80      2.5       99     62.7     63.0     62.5       83     1012     0.00        2     13.4
    06/24/2016 05:00      1.6       72      3.4       63     62.6     62.9     62.3       84     1013     0.00        6     13.4
    06/24/2016 05:15      0.8      102      2.9       71     62.4     62.6     62.2       84     1013     0.00       18     13.4
    06/24/2016 05:30      0.8      130      2.6      171     62.2     62.5     61.9       84     1013     0.00       34     13.4
    06/24/2016 05:45      1.3      145      3.1      146     62.1     62.4     61.9       85     1013     0.00       52     13.4
    06/24/2016 06:00      1.1       99      3.9       83     62.5     62.8     62.2       84     1013     0.00       81     13.4
    06/24/2016 06:15      2.2      136      4.5      118     62.6     62.8     62.4       85     1013     0.00      100     13.4
    06/24/2016 06:30      1.5      131      3.4      101     62.7     63.0     62.5       85     1013     0.00      107     13.3
    06/24/2016 06:45      1.2      147      3.5      135     63.0     63.7     62.5       84     1013     0.00      175     13.3
    06/24/2016 07:00      0.9      113      3.8      135     64.7     65.9     63.5       77     1013     0.00      327     13.3
    06/24/2016 07:15      1.5      132      4.7      133     65.5     66.3     64.9       77     1013     0.00      336     13.3
    06/24/2016 07:30      1.9      148      5.4       94     66.9     68.0     66.2       72     1013     0.00      426     13.3
    06/24/2016 07:45      2.2      166      4.7      130     68.1     68.7     67.5       71     1013     0.00      462     13.2
    06/24/2016 08:00      2.5       97      6.4       93     69.4     70.3     68.6       67     1013     0.00      526     13.2
    06/24/2016 08:15      3.2      104      7.1       84     69.7     70.1     69.4       66     1013     0.00      572     13.2
    06/24/2016 08:30      2.9      115      5.8       95     70.2     71.4     69.6       62     1013     0.00      618     13.2
    06/24/2016 08:45      2.2       99      6.3      122     71.6     72.3     71.2       60     1013     0.00      666     13.2
    06/24/2016 09:00      3.2      140      8.2      164     72.3     72.9     71.5       59     1013     0.00      707     13.2
    06/24/2016 09:15      2.6      134      6.3      139     73.6     74.7     72.7       57     1013     0.00      746     13.2
    06/24/2016 09:30      2.4      142      6.0      142     74.7     75.2     74.0       55     1013     0.00      787     13.1
    06/24/2016 09:45      2.3      116      5.3      148     76.3     77.0     75.0       51     1012     0.00      818     13.1
    06/24/2016 10:00      3.6       99      8.5       87     76.3     76.9     75.8       51     1012     0.00      844     13.1
    06/24/2016 10:15      3.7      111      8.1       69     76.5     77.2     75.8       52     1012     0.00      869     13.1
    06/24/2016 10:30      3.9      115      9.3       93     77.3     78.0     76.4       51     1012     0.00      889     13.1
    06/24/2016 10:45      3.8      127     10.2      153     77.8     78.7     77.0       48     1012     0.00      911     13.1
    06/24/2016 11:00      4.2      105      8.3       73     79.3     79.8     78.3       47     1012     0.00      932     13.1
    06/24/2016 11:15      4.5      118     10.0      159     79.9     80.5     79.2       45     1012     0.00      943     13.1
    06/24/2016 11:30      4.6      144     11.8      151     79.8     81.4     79.0       43     1012     0.00      947     13.1
    06/24/2016 11:45      3.9      129      7.9      141     80.9     81.9     80.1       43     1012     0.00      949     13.1
    06/24/2016 12:00      5.1      122     10.4      131     81.4     82.2     80.5       44     1012     0.00      948     13.1
    06/24/2016 12:15      4.3      123      9.0      154     81.7     82.4     81.1       43     1012     0.00      953     13.1
    06/24/2016 12:30      3.8      113      9.9       94     81.7     83.0     80.7       41     1012     0.00      949     13.1
    06/24/2016 12:45      4.7      135      9.2      159     82.5     83.5     81.6       41     1012     0.00      942     13.0
    06/24/2016 13:00      4.3      102      8.6       93     82.8     83.4     82.2       39     1011     0.00      933     13.0
    06/24/2016 13:15      2.8      131      7.3      116     84.3     85.6     83.2       36     1011     0.00      921     13.0
    06/24/2016 13:30      4.1       91      9.7       91     84.6     85.6     84.0       37     1011     0.00      902     13.0
    06/24/2016 13:45      4.1      101      9.0       73     84.7     85.2     84.2       37     1011     0.00      877     13.0
    06/24/2016 14:00      3.7       98      8.5       92     84.6     85.1     84.0       37     1011     0.00      855     13.0
    06/24/2016 14:15      4.9      120     10.6      105     84.5     85.3     83.8       37     1011     0.00      821     13.0
    06/24/2016 14:30      4.4      119     11.3      163     84.4     84.9     83.7       38     1011     0.00      765     13.0
    06/24/2016 14:45      4.6      112     10.2       86     83.8     84.5     82.9       39     1011     0.00      754     13.0
    06/24/2016 15:00      4.6      114     11.4      161     83.3     84.7     82.2       40     1011     0.00      715     13.0
    06/24/2016 15:15      4.1      125      9.7      123     82.6     83.5     81.8       42     1010     0.00      672     13.0
    06/24/2016 15:30      4.3      112     10.0      134     82.0     82.6     81.1       41     1010     0.00      631     13.0
    06/24/2016 15:45      4.8      116      8.9       84     81.7     82.6     81.1       43     1010     0.00      589     13.0
    06/24/2016 16:00      4.8      108     10.3       86     81.2     81.9     80.3       43     1010     0.00      546     13.0
    06/24/2016 16:15      4.9      114     11.6       87     80.6     81.2     79.8       43     1010     0.00      500     13.0
    06/24/2016 16:30      4.3      102      9.3      141     80.6     81.1     79.8       44     1010     0.00      454     13.0
    06/24/2016 16:45      3.6      112      8.6      125     80.5     80.8     80.0       44     1010     0.00      405     13.0
    06/24/2016 17:00      4.6      104     11.7       92     79.4     80.1     78.9       46     1010     0.00      354     13.0
    06/24/2016 17:15      4.1       99      8.7      122     79.0     79.6     78.6       46     1010     0.00      305     13.0
    06/24/2016 17:30      5.2       93     10.0       92     78.1     79.1     77.3       49     1010     0.00      252     13.1
    06/24/2016 17:45      4.4       98      9.6       98     77.0     77.6     76.8       50     1010     0.00       58     13.1
    06/24/2016 18:00      3.6      117      7.8      137     76.7     77.1     76.5       50     1010     0.00       43     13.1
    06/24/2016 18:15      2.8      118      6.4      136     76.5     77.0     76.1       51     1010     0.00       35     13.1
    06/24/2016 18:30      3.2      117      7.1      125     75.8     76.3     75.3       53     1010     0.00       28     13.2
    06/24/2016 18:45      2.5      106      6.6       94     75.1     75.5     74.7       54     1010     0.00       23     13.2
    06/24/2016 19:00      3.1       97      6.8       89     74.6     75.1     74.2       55     1010     0.00       14     13.2
    06/24/2016 19:15      2.1      102      5.1       73     73.8     74.2     73.3       56     1010     0.00        5     13.2
    06/24/2016 19:30      2.0      104      5.4      102     72.9     73.5     72.3       58     1010     0.00        2     13.2
    06/24/2016 19:45      2.1      111      6.0      108     72.3     72.6     71.7       59     1010     0.00        0     13.2
    06/24/2016 20:00      2.0      133      5.2      155     71.2     71.9     70.7       61     1010     0.00        0     13.2
    06/24/2016 20:15      1.8      109      4.6       82     70.8     71.1     70.5       62     1010     0.00        0     13.2
    06/24/2016 20:30      2.4      120      5.6       98     70.3     70.6     69.7       63     1011     0.00        0     13.3
    06/24/2016 20:45      2.0      121      6.0       83     69.5     69.9     69.1       65     1011     0.00        0     13.3
    06/24/2016 21:00      1.3      115      4.0       87     68.9     69.3     68.6       66     1011     0.00        0     13.3
    06/24/2016 21:15      0.7      149      3.8      151     68.3     68.8     67.8       68     1011     0.00        0     13.3
    06/24/2016 21:30      1.2      148      4.2      130     67.7     68.0     67.5       69     1011     0.00        0     13.3
    06/24/2016 21:45      1.5      145      3.6      151     67.2     67.6     66.8       71     1011     0.00        0     13.3
    06/24/2016 22:00      1.0      136      2.8      148     66.9     67.2     66.6       71     1011     0.00        0     13.3
    06/24/2016 22:15      0.4      133      3.0      125     66.8     67.0     66.5       71     1011     0.00        0     13.3
    06/24/2016 22:30      1.2      150      2.8      137     66.4     66.7     66.1       72     1011     0.00        0     13.3
    06/24/2016 22:45      0.7      141      2.1      147     66.0     66.3     65.7       73     1011     0.00        0     13.3
    06/24/2016 23:00      0.8      156      2.6      152     65.5     65.9     65.1       74     1011     0.00        0     13.3
    06/24/2016 23:15      0.6      139      2.3      133     65.2     65.5     64.9       75     1011     0.00        0     13.3
    06/24/2016 23:30      0.8      131      2.3      143     65.1     65.4     64.9       75     1011     0.00        0     13.3
    06/24/2016 23:45      1.2      132      2.9      149     65.0     65.3     64.7       76     1011     0.00        0     13.3
    06/25/2016 00:00      0.7      159      2.9      154     64.5     64.8     64.1       77     1011     0.00        0     13.3
    06/25/2016 00:15      0.7      107      2.7       90     64.3     64.5     64.1       77     1011     0.00        0     13.3
    06/25/2016 00:30      0.5       88      3.0       59     64.3     64.5     64.0       77     1011     0.00        0     13.3
    06/25/2016 00:45      0.7      119      2.8       54     64.1     64.4     63.8       78     1011     0.00        0     13.4
    06/25/2016 01:00      1.1       77      3.5       56     63.8     64.1     63.6       78     1010     0.00        0     13.4